Time;durP1;ratioP1;P1;durP2;ratioP2;P2;SDS_P1;SDS_P2;PMS_P1;PMS_P2;Temp;Humidity;BMP_temperature;BMP_pressure;BME280_temperature;BME280_humidity;BME280_pressure;Samples;Min_cycle;Max_cycle;Signal;HPM_P1;HPM_P2
2022/01/25 00:28:22;;;;;;;57.80;30.92;;;4.30;99.90;;;;;;5036931;28;20049;-66
2022/01/25 00:33:23;;;;;;;58.65;30.42;;;4.20;99.90;;;;;;5054223;28;20053;-67
2022/01/25 00:35:49;;;;;;;58.42;31.35;;;4.20;99.90;;;;;;5055011;28;20040;-67
2022/01/25 00:38:14;;;;;;;57.90;30.95;;;4.20;99.90;;;;;;5057184;28;20036;-66
2022/01/25 00:40:40;;;;;;;62.28;31.70;;;4.20;99.90;;;;;;5056329;28;20060;-67
2022/01/25 00:43:06;;;;;;;62.20;31.98;;;4.30;99.90;;;;;;5053525;28;20475;-69
2022/01/25 00:45:31;;;;;;;65.35;32.35;;;4.20;99.90;;;;;;5055174;28;20183;-66
2022/01/25 00:47:57;;;;;;;63.85;31.27;;;4.20;99.90;;;;;;5053768;28;20471;-67
2022/01/25 00:50:23;;;;;;;63.85;31.70;;;4.20;99.90;;;;;;5071309;28;20576;-66
2022/01/25 00:55:15;;;;;;;71.38;33.35;;;4.30;99.90;;;;;;5054325;28;20125;-67
2022/01/25 00:57:41;;;;;;;63.80;32.20;;;4.20;99.90;;;;;;5053453;28;20123;-69
2022/01/25 01:00:10;;;;;;;62.95;31.55;;;4.20;99.90;;;;;;5052087;28;20131;-66
2022/01/25 01:02:35;;;;;;;61.78;31.23;;;4.20;99.90;;;;;;5051909;28;20342;-70
2022/01/25 01:05:02;;;;;;;62.20;31.70;;;4.20;99.90;;;;;;5055732;28;20815;-67
2022/01/25 01:07:28;;;;;;;62.83;31.92;;;4.20;99.90;;;;;;5053107;28;20075;-66
2022/01/25 01:09:54;;;;;;;64.65;31.52;;;4.20;99.90;;;;;;5054340;28;20041;-67
2022/01/25 01:12:50;;;;;;;67.55;32.42;;;4.20;99.90;;;;;;5053203;28;20110;-67
2022/01/25 01:31:25;;;;;;;64.43;31.67;;;4.20;99.90;;;;;;5055048;28;20044;-67
2022/01/25 01:34:16;;;;;;;61.20;31.35;;;4.20;99.90;;;;;;5050042;28;20544;-71
2022/01/25 01:42:15;;;;;;;63.67;32.78;;;4.20;99.90;;;;;;5052069;28;20063;-68
2022/01/25 01:47:35;;;;;;;62.10;31.92;;;4.20;99.90;;;;;;5039236;28;20036;-66
2022/01/25 01:50:02;;;;;;;61.42;31.25;;;4.10;99.90;;;;;;5043003;28;20091;-66
2022/01/25 01:52:28;;;;;;;64.00;32.58;;;4.10;99.90;;;;;;5034342;28;20047;-69
2022/01/25 01:54:54;;;;;;;65.28;32.75;;;4.20;99.90;;;;;;5053563;28;20037;-66
2022/01/25 01:57:20;;;;;;;66.20;33.30;;;4.10;99.90;;;;;;5056083;28;20046;-67
2022/01/25 01:59:45;;;;;;;61.97;31.88;;;4.10;99.90;;;;;;5052680;28;20037;-70
2022/01/25 02:02:11;;;;;;;67.82;33.38;;;4.10;99.90;;;;;;5050677;28;20087;-67
2022/01/25 02:04:37;;;;;;;63.95;31.67;;;4.10;99.90;;;;;;5052123;28;20052;-68
2022/01/25 02:07:03;;;;;;;64.97;32.30;;;4.20;99.90;;;;;;5053018;28;20509;-68
2022/01/25 02:09:29;;;;;;;61.05;32.47;;;4.20;99.90;;;;;;5048701;28;20342;-67
2022/01/25 02:11:55;;;;;;;64.13;31.67;;;4.20;99.90;;;;;;5055362;28;20075;-73
2022/01/25 02:14:20;;;;;;;65.18;30.20;;;4.10;99.90;;;;;;5050883;28;20127;-68
2022/01/25 02:24:46;;;;;;;63.67;32.40;;;4.10;99.90;;;;;;5043859;28;20060;-69
2022/01/25 02:27:12;;;;;;;64.60;32.17;;;4.10;99.90;;;;;;5042142;28;20068;-69
2022/01/25 02:29:38;;;;;;;62.38;32.83;;;4.10;99.90;;;;;;5050699;28;20053;-68
2022/01/25 02:32:05;;;;;;;65.00;33.17;;;4.10;99.90;;;;;;5053497;28;20120;-66
2022/01/25 02:34:30;;;;;;;63.70;33.25;;;4.10;99.90;;;;;;5061660;28;20041;-68
2022/01/25 02:37:08;;;;;;;59.50;31.88;;;4.10;99.90;;;;;;5052222;28;20063;-67
2022/01/25 02:39:35;;;;;;;68.28;34.47;;;4.10;99.90;;;;;;5056003;28;20048;-67
2022/01/25 02:42:01;;;;;;;64.82;33.30;;;4.10;99.90;;;;;;5055065;28;20406;-67
2022/01/25 02:44:29;;;;;;;62.67;32.38;;;4.00;99.90;;;;;;5053158;28;20048;-68
2022/01/25 02:49:27;;;;;;;70.90;32.60;;;4.10;99.90;;;;;;5053455;28;20037;-66
2022/01/25 02:51:53;;;;;;;62.80;32.67;;;4.10;99.90;;;;;;5051446;28;20048;-67
2022/01/25 02:54:19;;;;;;;60.35;32.20;;;4.10;99.90;;;;;;5053907;28;20048;-67
2022/01/25 02:56:46;;;;;;;65.20;32.70;;;4.10;99.90;;;;;;5051246;28;20044;-67
2022/01/25 02:59:13;;;;;;;61.85;31.08;;;4.10;99.90;;;;;;5050489;28;20053;-66
2022/01/25 03:01:40;;;;;;;59.15;31.50;;;4.10;99.90;;;;;;5065403;28;20123;-66
2022/01/25 03:04:07;;;;;;;64.22;33.08;;;4.20;99.90;;;;;;5047618;28;20430;-67
2022/01/25 03:06:33;;;;;;;63.35;33.58;;;4.10;99.90;;;;;;5050632;28;20128;-68
2022/01/25 03:08:59;;;;;;;61.05;32.35;;;4.10;99.90;;;;;;5050959;28;20041;-68
2022/01/25 03:11:25;;;;;;;67.75;33.65;;;4.10;99.90;;;;;;5055600;28;20044;-69
2022/01/25 03:13:55;;;;;;;67.18;34.40;;;4.10;99.90;;;;;;5055228;28;20036;-68
2022/01/25 03:16:30;;;;;;;65.50;34.63;;;4.10;99.90;;;;;;5055557;28;20033;-70
2022/01/25 03:18:58;;;;;;;64.53;32.35;;;4.10;99.90;;;;;;5055416;28;20134;-68
2022/01/25 03:23:53;;;;;;;63.75;32.70;;;4.10;99.90;;;;;;5057374;28;20049;-68
2022/01/25 03:26:20;;;;;;;66.65;33.72;;;4.10;99.90;;;;;;5049519;28;20037;-70
2022/01/25 03:28:46;;;;;;;69.03;35.65;;;4.10;99.90;;;;;;5053469;28;20049;-68
2022/01/25 03:31:13;;;;;;;61.55;33.30;;;4.10;99.90;;;;;;5050450;28;20482;-70
2022/01/25 03:33:39;;;;;;;65.70;34.10;;;4.10;99.90;;;;;;5049231;28;20062;-70
2022/01/25 03:36:07;;;;;;;65.03;33.47;;;4.10;99.90;;;;;;5054532;28;20044;-67
2022/01/25 03:38:34;;;;;;;65.03;34.65;;;4.10;99.90;;;;;;5054122;28;20041;-70
2022/01/25 03:41:01;;;;;;;63.47;33.60;;;4.10;99.90;;;;;;5056368;28;20049;-67
2022/01/25 03:43:27;;;;;;;68.57;33.08;;;4.10;99.90;;;;;;5052713;28;20056;-68
2022/01/25 03:46:05;;;;;;;67.65;34.97;;;4.10;99.90;;;;;;5049182;28;20041;-67
2022/01/25 03:50:56;;;;;;;66.80;34.75;;;4.10;99.90;;;;;;5057940;28;20047;-67
2022/01/25 03:53:22;;;;;;;70.30;35.45;;;4.10;99.90;;;;;;5057472;28;20044;-68
2022/01/25 03:55:48;;;;;;;67.50;35.45;;;4.10;99.90;;;;;;5055792;28;20086;-67
2022/01/25 03:58:14;;;;;;;68.10;34.85;;;4.10;99.90;;;;;;5052587;28;20560;-67
2022/01/25 04:00:41;;;;;;;66.78;35.33;;;4.10;99.90;;;;;;5062897;28;20048;-68
2022/01/25 04:03:14;;;;;;;69.68;36.40;;;4.10;99.90;;;;;;5053737;28;20740;-71
2022/01/25 04:08:10;;;;;;;62.92;33.83;;;4.10;99.90;;;;;;5056127;28;20036;-67
2022/01/25 04:10:36;;;;;;;67.03;35.70;;;4.10;99.90;;;;;;5057531;28;20043;-71
2022/01/25 04:13:03;;;;;;;65.50;33.92;;;4.10;99.90;;;;;;5051818;28;20429;-67
2022/01/25 04:15:29;;;;;;;63.95;33.85;;;4.10;99.90;;;;;;5054137;28;20037;-70
2022/01/25 04:18:23;;;;;;;66.13;35.90;;;4.10;99.90;;;;;;5054416;28;20095;-68
2022/01/25 04:20:42;;;;;;;66.40;34.05;;;4.10;99.90;;;;;;5052026;28;20064;-68
2022/01/25 04:25:52;;;;;;;64.05;33.20;;;4.10;99.90;;;;;;5054250;28;20052;-70
2022/01/25 04:28:17;;;;;;;63.83;34.13;;;4.10;99.90;;;;;;5052934;28;20044;-69
2022/01/25 04:30:43;;;;;;;64.70;33.92;;;4.10;99.90;;;;;;5054724;28;20044;-70
2022/01/25 04:33:23;;;;;;;71.28;33.67;;;4.20;99.90;;;;;;5053137;28;20072;-67
2022/01/25 04:49:32;;;;;;;69.93;34.83;;;4.10;99.90;;;;;;5053713;28;20055;-70
2022/01/25 04:52:06;;;;;;;74.60;35.20;;;4.10;99.90;;;;;;5060221;28;20076;-68
2022/01/25 04:54:56;;;;;;;66.07;34.22;;;4.10;99.90;;;;;;5055470;28;20052;-68
2022/01/25 04:57:42;;;;;;;68.45;35.03;;;4.10;99.90;;;;;;5052879;28;20048;-67
2022/01/25 05:00:18;;;;;;;65.90;34.17;;;4.10;99.90;;;;;;5054988;28;20449;-72
2022/01/25 05:05:36;;;;;;;71.72;35.42;;;4.10;99.90;;;;;;5055833;28;20478;-69
2022/01/25 05:10:22;;;;;;;68.20;34.35;;;4.10;99.90;;;;;;5056539;28;20045;-71
2022/01/25 05:13:18;;;;;;;68.55;33.13;;;4.10;99.90;;;;;;5053290;28;20036;-71
2022/01/25 05:18:17;;;;;;;71.25;33.72;;;4.10;99.90;;;;;;5056572;28;20389;-71
2022/01/25 05:23:27;;;;;;;70.30;33.85;;;4.40;99.90;;;;;;5055815;28;20059;-69
2022/01/25 05:25:53;;;;;;;66.80;33.65;;;4.10;99.90;;;;;;5054789;28;20482;-70
2022/01/25 05:28:19;;;;;;;69.95;34.22;;;4.10;99.90;;;;;;5049378;28;20072;-67
2022/01/25 05:30:45;;;;;;;68.47;34.10;;;4.10;99.90;;;;;;5049737;28;20145;-67
2022/01/25 05:33:11;;;;;;;69.40;34.40;;;4.10;99.90;;;;;;5055269;28;20045;-70
2022/01/25 05:35:37;;;;;;;64.95;32.10;;;4.20;99.90;;;;;;5051501;28;20044;-67
2022/01/25 05:38:03;;;;;;;68.55;33.15;;;4.20;99.90;;;;;;5050949;28;20049;-68
2022/01/25 05:40:58;;;;;;;68.70;33.35;;;4.20;99.90;;;;;;5054349;28;20055;-67
2022/01/25 05:48:29;;;;;;;70.85;34.50;;;4.20;99.90;;;;;;5044500;28;20046;-69
2022/01/25 05:50:55;;;;;;;66.57;32.55;;;4.20;99.90;;;;;;5051158;28;20403;-69
2022/01/25 05:53:21;;;;;;;74.00;34.10;;;4.20;99.90;;;;;;5044973;28;20046;-69
2022/01/25 05:55:48;;;;;;;67.72;33.15;;;4.20;99.90;;;;;;5051176;28;20064;-69
2022/01/25 05:58:13;;;;;;;67.85;33.97;;;4.20;99.90;;;;;;5081484;28;20118;-70
2022/01/25 06:00:39;;;;;;;71.90;33.35;;;5.10;99.90;;;;;;5056694;28;20060;-68
2022/01/25 06:03:06;;;;;;;68.28;34.35;;;4.20;99.90;;;;;;5066407;28;20078;-69
2022/01/25 06:05:33;;;;;;;68.78;33.72;;;4.20;99.90;;;;;;5059930;28;20065;-68
2022/01/25 06:07:59;;;;;;;67.18;33.28;;;4.20;99.90;;;;;;5057346;28;20045;-68
2022/01/25 06:10:24;;;;;;;70.55;33.53;;;4.20;99.90;;;;;;5052077;28;20123;-68
2022/01/25 06:12:50;;;;;;;69.65;34.78;;;4.30;99.90;;;;;;5052882;28;20508;-67
2022/01/25 06:15:16;;;;;;;65.32;33.22;;;4.30;99.90;;;;;;5070952;28;20052;-67
2022/01/25 06:17:41;;;;;;;67.72;34.28;;;4.30;99.90;;;;;;5050984;28;20071;-67
2022/01/25 06:20:08;;;;;;;69.90;33.78;;;4.30;99.90;;;;;;5048430;28;20049;-70
2022/01/25 06:22:33;;;;;;;69.60;33.33;;;4.30;99.90;;;;;;5049167;28;20099;-68
2022/01/25 06:25:00;;;;;;;67.65;33.67;;;4.30;99.90;;;;;;5063699;28;20044;-71
2022/01/25 06:27:25;;;;;;;63.90;32.35;;;4.30;99.90;;;;;;5061256;28;20040;-69
2022/01/25 06:29:52;;;;;;;66.45;33.58;;;4.30;99.90;;;;;;5027073;28;20045;-68
2022/01/25 06:32:19;;;;;;;63.95;32.55;;;4.30;99.90;;;;;;5051978;28;20041;-69
2022/01/25 06:34:46;;;;;;;67.72;33.53;;;4.30;99.90;;;;;;5052004;28;20041;-69
2022/01/25 06:37:13;;;;;;;74.30;35.63;;;4.30;99.90;;;;;;5052209;28;20382;-68
2022/01/25 06:39:40;;;;;;;68.95;33.92;;;4.30;99.90;;;;;;5046619;28;20566;-68
2022/01/25 06:42:06;;;;;;;70.97;34.42;;;4.40;99.90;;;;;;5055591;28;20120;-69
2022/01/25 06:44:35;;;;;;;65.30;32.88;;;4.30;99.90;;;;;;5036532;28;20120;-68
2022/01/25 06:47:01;;;;;;;72.72;34.70;;;4.30;99.90;;;;;;5037260;28;20092;-69
2022/01/25 06:49:27;;;;;;;69.65;32.35;;;4.40;99.90;;;;;;5054843;28;20170;-68
2022/01/25 06:51:53;;;;;;;67.03;34.75;;;4.60;99.90;;;;;;5055547;28;20045;-69
2022/01/25 06:54:18;;;;;;;67.93;33.42;;;4.30;99.90;;;;;;5037650;28;20059;-69
2022/01/25 06:56:44;;;;;;;67.28;32.65;;;4.40;99.90;;;;;;5050147;28;20044;-69
2022/01/25 06:59:10;;;;;;;70.88;34.97;;;5.60;99.90;;;;;;5053805;28;20124;-69
2022/01/25 07:01:35;;;;;;;75.50;35.17;;;4.40;99.90;;;;;;5052575;28;20390;-67
2022/01/25 07:04:01;;;;;;;68.75;33.75;;;4.80;99.90;;;;;;5048125;28;20037;-67
2022/01/25 07:06:27;;;;;;;70.70;34.90;;;4.40;99.90;;;;;;5056811;28;20037;-69
2022/01/25 07:08:53;;;;;;;72.88;35.72;;;4.40;99.90;;;;;;5054173;28;20041;-69
2022/01/25 07:11:19;;;;;;;75.78;35.00;;;4.40;99.90;;;;;;5058089;28;20037;-69
2022/01/25 07:13:46;;;;;;;67.68;34.65;;;4.40;99.90;;;;;;5055628;28;20481;-68
2022/01/25 07:16:11;;;;;;;74.18;34.85;;;4.60;99.90;;;;;;5038145;28;20051;-68
2022/01/25 07:18:37;;;;;;;71.10;34.80;;;4.40;99.90;;;;;;5051417;28;20128;-68
2022/01/25 07:21:03;;;;;;;66.03;33.67;;;4.40;99.90;;;;;;5052198;28;20422;-69
2022/01/25 07:23:29;;;;;;;72.75;34.65;;;4.40;99.90;;;;;;5056658;28;20049;-68
2022/01/25 07:25:54;;;;;;;66.05;34.13;;;4.40;99.90;;;;;;5057658;28;20033;-69
2022/01/25 07:28:20;;;;;;;63.08;33.25;;;4.40;99.90;;;;;;5038498;28;20044;-68
2022/01/25 07:30:46;;;;;;;67.65;33.70;;;4.40;99.90;;;;;;5050658;28;20063;-69
2022/01/25 07:33:11;;;;;;;70.60;34.05;;;4.40;99.90;;;;;;5048236;28;20456;-68
2022/01/25 07:35:38;;;;;;;73.50;35.65;;;4.40;99.90;;;;;;5055380;28;20045;-69
2022/01/25 07:38:04;;;;;;;66.72;31.80;;;4.30;99.90;;;;;;5066137;28;20044;-68
2022/01/25 07:40:30;;;;;;;72.55;34.83;;;4.40;99.90;;;;;;5046179;28;20044;-67
2022/01/25 07:42:57;;;;;;;74.35;35.05;;;4.40;99.90;;;;;;5074595;28;20506;-67
2022/01/25 07:45:24;;;;;;;73.65;34.40;;;4.40;99.90;;;;;;5065548;28;20105;-69
2022/01/25 07:47:50;;;;;;;68.35;36.00;;;4.40;99.90;;;;;;5069211;28;20617;-69
2022/01/25 07:50:15;;;;;;;65.63;34.08;;;4.30;99.90;;;;;;5077094;28;20082;-68
2022/01/25 07:52:41;;;;;;;68.25;35.67;;;4.30;99.90;;;;;;5061072;28;20037;-68
2022/01/25 07:55:08;;;;;;;69.43;34.47;;;4.40;99.90;;;;;;5055159;28;20122;-69
2022/01/25 07:57:33;;;;;;;74.28;34.65;;;4.30;99.90;;;;;;5049264;28;20049;-68
2022/01/25 07:59:59;;;;;;;70.05;35.33;;;4.30;99.90;;;;;;5055646;28;20179;-70
2022/01/25 08:02:25;;;;;;;71.93;35.83;;;4.30;99.90;;;;;;5068579;28;20059;-69
2022/01/25 08:04:51;;;;;;;72.45;34.60;;;4.30;99.90;;;;;;5057385;28;20037;-70
2022/01/25 08:07:17;;;;;;;71.70;35.85;;;4.30;99.90;;;;;;5053013;28;20032;-69
2022/01/25 08:09:43;;;;;;;67.65;33.83;;;4.30;99.90;;;;;;5074479;28;20048;-72
2022/01/25 08:12:11;;;;;;;70.95;34.50;;;4.30;99.90;;;;;;5061700;28;20054;-68
2022/01/25 08:14:38;;;;;;;73.63;35.55;;;4.30;99.90;;;;;;5074818;28;20044;-68
2022/01/25 08:17:04;;;;;;;75.13;36.47;;;4.30;99.90;;;;;;5072511;28;20090;-68
2022/01/25 08:19:30;;;;;;;73.35;34.05;;;4.70;99.90;;;;;;5052466;28;20041;-69
2022/01/25 08:21:55;;;;;;;69.45;34.88;;;4.30;99.90;;;;;;5044901;28;20057;-68
2022/01/25 08:24:21;;;;;;;71.72;35.65;;;4.30;99.90;;;;;;5037584;28;20041;-70
2022/01/25 08:26:47;;;;;;;80.47;35.90;;;4.40;99.90;;;;;;5041770;28;20506;-69
2022/01/25 08:29:13;;;;;;;77.70;37.17;;;4.30;99.90;;;;;;5072128;28;20053;-68
2022/01/25 08:31:39;;;;;;;69.75;34.78;;;4.40;99.90;;;;;;5037807;28;20049;-68
2022/01/25 08:34:07;;;;;;;72.65;35.70;;;4.40;99.90;;;;;;5055004;28;20056;-69
2022/01/25 08:36:33;;;;;;;74.53;36.13;;;4.40;99.90;;;;;;5054972;28;20045;-68
2022/01/25 08:38:59;;;;;;;75.63;35.40;;;4.40;99.90;;;;;;5070863;28;20041;-69
2022/01/25 08:41:25;;;;;;;78.82;35.97;;;4.40;99.90;;;;;;5053010;28;20037;-69
2022/01/25 08:43:51;;;;;;;80.93;38.05;;;4.40;99.90;;;;;;5055291;28;20478;-68
2022/01/25 08:46:17;;;;;;;80.28;36.60;;;4.40;99.90;;;;;;5072063;28;20045;-66
2022/01/25 08:48:45;;;;;;;74.60;36.50;;;4.40;99.90;;;;;;5048143;28;20047;-68
2022/01/25 08:51:11;;;;;;;74.82;37.38;;;4.40;99.90;;;;;;5055660;28;20052;-68
2022/01/25 08:53:37;;;;;;;73.97;36.47;;;4.40;99.90;;;;;;5057765;28;20037;-68
2022/01/25 08:56:03;;;;;;;74.20;35.88;;;4.40;99.90;;;;;;5037954;28;20053;-70
2022/01/25 08:58:29;;;;;;;70.32;35.85;;;4.40;99.90;;;;;;5054718;28;20033;-68
2022/01/25 09:00:56;;;;;;;73.90;36.67;;;4.40;99.90;;;;;;5078270;28;20036;-68
2022/01/25 09:03:22;;;;;;;70.63;36.55;;;4.40;99.90;;;;;;5078294;28;20052;-68
2022/01/25 09:05:47;;;;;;;79.28;36.97;;;4.40;99.90;;;;;;5066233;28;20375;-69
2022/01/25 09:08:19;;;;;;;76.20;35.35;;;4.40;99.90;;;;;;5046537;28;20037;-73
2022/01/25 09:10:45;;;;;;;77.85;37.03;;;4.40;99.90;;;;;;5068406;28;20084;-69
2022/01/25 09:13:11;;;;;;;76.28;39.22;;;4.40;99.90;;;;;;5070992;28;20142;-68
2022/01/25 09:15:36;;;;;;;71.38;34.92;;;4.40;99.90;;;;;;5067028;28;20044;-68
2022/01/25 09:18:02;;;;;;;70.40;35.42;;;5.00;99.90;;;;;;5064662;28;20041;-68
2022/01/25 09:20:28;;;;;;;82.25;36.70;;;4.40;99.90;;;;;;5074247;28;20086;-69
2022/01/25 09:22:53;;;;;;;76.68;37.80;;;4.40;99.90;;;;;;5061424;28;20048;-68
2022/01/25 09:25:19;;;;;;;71.07;35.47;;;4.40;99.90;;;;;;5053743;28;20561;-69
2022/01/25 09:27:45;;;;;;;73.45;36.08;;;5.30;99.90;;;;;;5057696;28;20131;-69
2022/01/25 09:30:11;;;;;;;74.53;35.60;;;4.50;99.90;;;;;;5074206;28;20084;-68
2022/01/25 09:32:37;;;;;;;79.60;37.03;;;4.50;99.90;;;;;;5056226;28;20120;-68
2022/01/25 09:35:03;;;;;;;74.53;36.58;;;4.50;99.90;;;;;;5071084;28;20398;-68
2022/01/25 09:37:28;;;;;;;78.05;37.10;;;4.50;99.90;;;;;;5072416;28;20048;-72
2022/01/25 09:39:54;;;;;;;76.68;35.65;;;4.50;99.90;;;;;;5056254;28;20486;-70
2022/01/25 09:42:21;;;;;;;81.43;36.65;;;4.50;99.90;;;;;;5069208;28;20039;-69
2022/01/25 09:44:48;;;;;;;73.22;36.50;;;4.80;99.90;;;;;;5056509;28;20050;-67
2022/01/25 09:47:14;;;;;;;73.00;36.13;;;4.50;99.90;;;;;;5045579;28;20034;-72
2022/01/25 09:49:39;;;;;;;72.30;36.67;;;4.50;99.90;;;;;;5044834;28;20385;-69
2022/01/25 09:52:07;;;;;;;72.55;36.22;;;4.50;99.90;;;;;;5053085;28;20083;-69
2022/01/25 09:54:34;;;;;;;79.70;35.93;;;4.50;99.90;;;;;;5050382;28;20068;-69
2022/01/25 09:57:02;;;;;;;74.15;36.30;;;4.70;99.90;;;;;;5051868;28;20337;-68
2022/01/25 09:59:28;;;;;;;71.97;34.88;;;4.50;99.90;;;;;;5063912;28;20041;-68
2022/01/25 10:01:55;;;;;;;68.57;34.80;;;4.60;99.90;;;;;;5059276;28;20044;-69
2022/01/25 10:04:41;;;;;;;73.68;35.95;;;4.60;99.90;;;;;;5042243;28;20045;-69
2022/01/25 10:07:09;;;;;;;71.75;34.70;;;4.60;99.90;;;;;;5056336;28;20235;-67
2022/01/25 10:09:42;;;;;;;76.32;37.53;;;4.60;99.90;;;;;;5085322;28;20048;-71
2022/01/25 10:12:23;;;;;;;75.55;36.33;;;4.60;99.90;;;;;;5066143;28;20041;-68
2022/01/25 10:15:09;;;;;;;76.80;36.72;;;4.60;99.90;;;;;;5044517;28;20119;-67
2022/01/25 10:17:36;;;;;;;74.28;36.17;;;4.60;99.90;;;;;;5054358;28;20049;-68
2022/01/25 10:20:04;;;;;;;79.88;37.17;;;4.60;99.90;;;;;;5060273;28;20045;-68
2022/01/25 10:22:59;;;;;;;71.05;33.55;;;4.60;99.90;;;;;;5062792;28;20055;-70
2022/01/25 10:25:37;;;;;;;81.00;36.45;;;4.60;99.90;;;;;;5082631;28;20053;-69
2022/01/25 10:28:04;;;;;;;77.30;35.25;;;4.60;99.90;;;;;;5064099;28;20548;-69
2022/01/25 10:30:35;;;;;;;73.82;35.20;;;4.60;99.90;;;;;;5069290;28;20536;-68
2022/01/25 10:33:01;;;;;;;76.20;35.50;;;4.60;99.90;;;;;;5066083;28;20053;-68
2022/01/25 10:35:29;;;;;;;77.57;36.50;;;4.60;99.90;;;;;;5065637;28;20044;-69
2022/01/25 10:37:55;;;;;;;77.43;37.15;;;4.60;99.90;;;;;;5039883;28;20379;-69
2022/01/25 10:40:38;;;;;;;82.07;37.63;;;4.60;99.90;;;;;;5051760;28;20414;-69
2022/01/25 10:43:05;;;;;;;79.30;36.55;;;4.60;99.90;;;;;;5057329;28;20089;-68
2022/01/25 10:45:31;;;;;;;79.95;37.30;;;4.70;99.90;;;;;;5062125;28;20056;-68
2022/01/25 10:47:57;;;;;;;80.15;38.03;;;4.60;99.90;;;;;;5034289;28;20041;-68
2022/01/25 10:50:34;;;;;;;75.82;36.67;;;4.60;99.90;;;;;;5060786;28;20049;-68
2022/01/25 10:53:15;;;;;;;84.85;37.50;;;4.60;99.90;;;;;;5065592;28;20461;-69
2022/01/25 10:55:45;;;;;;;83.78;36.35;;;4.60;99.90;;;;;;5055749;28;20061;-68
2022/01/25 10:58:12;;;;;;;81.22;37.30;;;4.70;99.90;;;;;;5050302;28;20559;-67
2022/01/25 11:00:42;;;;;;;76.70;37.75;;;4.60;99.90;;;;;;5047815;28;20041;-69
2022/01/25 11:03:09;;;;;;;79.60;37.40;;;4.60;99.90;;;;;;5045131;28;20045;-69
2022/01/25 11:05:39;;;;;;;77.38;36.75;;;5.40;99.90;;;;;;5034978;28;20099;-70
2022/01/25 11:08:13;;;;;;;83.68;38.97;;;4.70;99.90;;;;;;5034704;28;20487;-70
2022/01/25 11:10:47;;;;;;;81.10;36.25;;;4.70;99.90;;;;;;5048830;28;20048;-68
2022/01/25 11:13:33;;;;;;;76.68;37.42;;;4.70;99.90;;;;;;5034052;28;20099;-68
2022/01/25 11:16:03;;;;;;;77.97;36.75;;;4.70;99.90;;;;;;5056825;28;20040;-69
2022/01/25 11:18:31;;;;;;;82.25;38.33;;;4.70;99.90;;;;;;5054631;28;20174;-68
2022/01/25 11:21:00;;;;;;;77.60;36.60;;;4.70;99.90;;;;;;5050326;28;20487;-69
2022/01/25 11:23:25;;;;;;;;;;;4.60;99.90;;;;;;5044330;28;20384;-69
2022/01/25 11:25:53;;;;;;;70.95;35.05;;;4.60;99.90;;;;;;5052662;28;19927;-70
2022/01/25 11:28:19;;;;;;;77.13;37.05;;;4.60;99.90;;;;;;5051833;28;20155;-69
2022/01/25 11:30:46;;;;;;;76.28;37.30;;;4.80;99.90;;;;;;5057330;28;20104;-69
2022/01/25 11:33:13;;;;;;;85.93;37.22;;;4.60;99.90;;;;;;5068250;28;20041;-68
2022/01/25 11:35:40;;;;;;;79.00;36.73;;;4.70;99.90;;;;;;5065605;28;20051;-69
2022/01/25 11:38:06;;;;;;;87.80;39.10;;;4.70;99.90;;;;;;5044302;28;20303;-70
2022/01/25 11:40:37;;;;;;;82.78;37.65;;;4.70;99.90;;;;;;5055259;28;20052;-68
2022/01/25 11:43:09;;;;;;;81.22;38.28;;;4.70;99.90;;;;;;5063238;28;20036;-68
2022/01/25 11:45:48;;;;;;;80.53;37.55;;;4.70;99.90;;;;;;5050157;28;20037;-69
2022/01/25 11:48:18;;;;;;;82.97;38.45;;;4.70;99.90;;;;;;5054796;28;20116;-68
2022/01/25 11:50:44;;;;;;;86.35;39.55;;;4.70;99.90;;;;;;5059850;28;20235;-67
2022/01/25 11:53:13;;;;;;;80.85;36.60;;;4.70;99.90;;;;;;5061009;28;20508;-69
2022/01/25 11:55:42;;;;;;;81.70;38.75;;;4.70;99.90;;;;;;5058180;28;20049;-67
2022/01/25 11:58:16;;;;;;;82.70;37.60;;;4.70;99.90;;;;;;5055042;28;20132;-68
2022/01/25 12:00:46;;;;;;;84.82;39.75;;;4.70;99.90;;;;;;5064248;28;20044;-68
2022/01/25 12:03:34;;;;;;;78.78;36.30;;;4.70;99.90;;;;;;5047277;28;20513;-69
2022/01/25 12:06:23;;;;;;;86.47;36.85;;;4.70;99.90;;;;;;5067292;28;20049;-68
2022/01/25 12:11:43;;;;;;;76.25;36.13;;;4.70;99.90;;;;;;5052300;28;20064;-68
2022/01/25 12:14:16;;;;;;;82.82;37.75;;;4.70;99.90;;;;;;5047965;28;20060;-70
2022/01/25 12:16:48;;;;;;;83.32;38.38;;;4.80;99.90;;;;;;5058740;28;20053;-69
2022/01/25 12:19:16;;;;;;;81.35;38.42;;;4.80;99.90;;;;;;5092264;28;20106;-68
2022/01/25 12:21:51;;;;;;;81.60;37.58;;;4.80;99.90;;;;;;5052511;28;20049;-67
2022/01/25 12:24:19;;;;;;;83.82;36.70;;;4.80;99.90;;;;;;5049701;28;20475;-70
2022/01/25 12:27:27;;;;;;;83.38;37.85;;;4.80;99.90;;;;;;5052295;28;20080;-69
2022/01/25 12:30:19;;;;;;;78.75;38.30;;;4.80;99.90;;;;;;5057225;28;20120;-67
2022/01/25 12:33:02;;;;;;;85.30;37.22;;;4.70;99.90;;;;;;5039993;28;20049;-68
2022/01/25 12:35:41;;;;;;;79.07;36.95;;;4.70;99.90;;;;;;5071435;28;20037;-67
2022/01/25 12:38:39;;;;;;;85.00;37.53;;;4.70;99.90;;;;;;5056426;28;20050;-68
2022/01/25 12:41:20;;;;;;;84.57;38.80;;;4.70;99.90;;;;;;5051339;28;20075;-68
2022/01/25 12:43:58;;;;;;;82.38;37.95;;;4.70;99.90;;;;;;5080903;28;20127;-68
2022/01/25 12:46:26;;;;;;;86.20;39.03;;;4.70;99.90;;;;;;5059005;28;20095;-68
2022/01/25 12:49:07;;;;;;;83.05;37.50;;;4.60;99.90;;;;;;5053647;28;20049;-68
2022/01/25 12:51:36;;;;;;;85.65;37.75;;;4.60;99.90;;;;;;5038814;28;20052;-67
2022/01/25 12:54:05;;;;;;;82.25;36.03;;;4.70;99.90;;;;;;5054130;28;20049;-68
2022/01/25 12:56:34;;;;;;;88.70;38.03;;;4.60;99.90;;;;;;5038592;28;20047;-68
2022/01/25 12:59:07;;;;;;;84.80;39.45;;;4.70;99.90;;;;;;5059361;28;20123;-67
2022/01/25 13:01:37;;;;;;;81.50;38.80;;;4.70;99.90;;;;;;5052257;28;20074;-69
2022/01/25 13:04:05;;;;;;;77.00;37.47;;;4.70;99.90;;;;;;5060541;28;20048;-67
2022/01/25 13:06:41;;;;;;;79.40;38.25;;;4.70;99.90;;;;;;5064346;28;20130;-69
2022/01/25 13:09:14;;;;;;;80.93;38.60;;;4.70;99.90;;;;;;5062056;28;20037;-68
2022/01/25 13:14:29;;;;;;;81.93;37.60;;;4.70;99.90;;;;;;5059260;28;20052;-69
2022/01/25 13:16:59;;;;;;;90.25;37.65;;;4.70;99.90;;;;;;5054371;28;20049;-68
2022/01/25 13:19:31;;;;;;;80.97;37.97;;;4.70;99.90;;;;;;5058447;28;20040;-67
2022/01/25 13:22:01;;;;;;;86.65;37.65;;;4.70;99.90;;;;;;5062474;28;20068;-70
2022/01/25 13:24:32;;;;;;;83.05;38.92;;;4.70;99.90;;;;;;5068154;28;20052;-68
2022/01/25 13:27:05;;;;;;;84.70;39.25;;;4.70;99.90;;;;;;5052278;28;20483;-68
2022/01/25 13:32:40;;;;;;;80.25;37.25;;;4.70;99.90;;;;;;5055132;28;20059;-68
2022/01/25 13:38:18;;;;;;;85.95;38.22;;;4.80;99.90;;;;;;5059832;28;20147;-68
2022/01/25 13:41:16;;;;;;;87.70;38.75;;;4.80;99.90;;;;;;5043892;28;20055;-68
2022/01/25 13:46:30;;;;;;;87.22;37.20;;;4.80;99.90;;;;;;5040289;28;20550;-68
2022/01/25 13:48:59;;;;;;;82.57;37.40;;;4.80;99.90;;;;;;5058674;28;20036;-68
2022/01/25 13:51:30;;;;;;;80.35;38.25;;;4.90;99.90;;;;;;5053366;28;20119;-67
2022/01/25 13:54:01;;;;;;;81.82;35.60;;;4.80;99.90;;;;;;5063799;28;20079;-69
2022/01/25 13:56:35;;;;;;;73.18;36.72;;;4.80;99.90;;;;;;5052596;28;20049;-67
2022/01/25 13:59:03;;;;;;;80.95;37.17;;;4.80;99.90;;;;;;5044696;28;20501;-68
2022/01/25 14:01:31;;;;;;;79.50;37.58;;;4.80;99.90;;;;;;5043075;28;20509;-69
2022/01/25 14:03:58;;;;;;;76.68;35.40;;;4.80;99.90;;;;;;5051154;28;20053;-68
2022/01/25 14:06:31;;;;;;;79.82;36.55;;;4.70;99.90;;;;;;5048107;28;20537;-68
2022/01/25 14:09:12;;;;;;;75.43;36.50;;;4.70;99.90;;;;;;5069958;28;20052;-68
2022/01/25 14:25:34;;;;;;;82.55;38.28;;;4.70;99.90;;;;;;5043016;28;20044;-69
2022/01/25 14:28:12;;;;;;;83.47;36.67;;;4.60;99.90;;;;;;5043163;28;20103;-68
2022/01/25 14:30:44;;;;;;;84.40;38.72;;;4.60;99.90;;;;;;5041956;28;20052;-70
2022/01/25 14:33:19;;;;;;;85.38;37.03;;;4.60;99.90;;;;;;5041184;28;20505;-70
2022/01/25 14:35:52;;;;;;;79.78;35.40;;;4.60;99.90;;;;;;5053525;28;20040;-68
2022/01/25 14:38:22;;;;;;;82.40;37.58;;;4.60;99.90;;;;;;5047628;28;20091;-70
2022/01/25 14:41:23;;;;;;;79.47;36.50;;;4.60;99.90;;;;;;5047956;28;20052;-69
2022/01/25 14:44:13;;;;;;;82.78;37.22;;;4.60;99.90;;;;;;5040832;28;20059;-69
2022/01/25 14:46:47;;;;;;;74.75;35.72;;;4.60;99.90;;;;;;5043653;28;20049;-69
2022/01/25 14:49:23;;;;;;;82.63;39.13;;;4.60;99.90;;;;;;5048316;28;20045;-70
2022/01/25 14:52:04;;;;;;;79.22;38.65;;;4.60;99.90;;;;;;5047782;28;20057;-68
2022/01/25 14:54:38;;;;;;;78.15;37.38;;;4.60;99.90;;;;;;5048970;28;20045;-69
2022/01/25 14:57:09;;;;;;;83.85;36.83;;;4.60;99.90;;;;;;5053879;28;20048;-67
2022/01/25 14:59:38;;;;;;;88.55;37.97;;;4.60;99.90;;;;;;5052290;28;20106;-67
2022/01/25 15:02:18;;;;;;;84.60;38.10;;;4.60;99.90;;;;;;5055428;28;20461;-67
2022/01/25 15:04:50;;;;;;;86.97;38.95;;;4.60;99.90;;;;;;5044030;28;20053;-68